Terminal Aerodrome Forecast
Issued by NWS Kansas City/Pleasant Hill, MO

Home | Current Version | Previous Version | Text Only | Print | Product List | Glossary On
Versions: 1 2 3 4 5 6 7 8 9 10 11 12 13 14
000
FTUS43 KEAX 271700
TAFMCI
TAF
KMCI 271720Z 2718/2818 08006KT P6SM BKN120
     FM280400 10008KT P6SM OVC050
     FM281200 12008KT P6SM OVC025
     FM281600 14009KT 3SM -SN OVC012=

USA.gov is the U.S. government's official web portal to all federal, state and local government web resources and services.